Terminal Aerodrome Forecast
Issued by NWS

Current Version | Previous Version | Text Only | Print | Product List | Glossary On
Versions: 1 2 3 4 5 6 7 8 9 10 11 12 13 14
000
FTUS43 KLSX 201739
TAFCPS
TAF
KCPS 201739Z 2018/2118 01008KT P6SM SCT030 BKN200
     FM202000 14006KT P6SM BKN200
     FM211400 21004KT P6SM BKN060=

USA.gov is the U.S. government's official web portal to all federal, state and local government web resources and services.